Aeroporto :
LOGIN :

Iscrizione | Disclaimer

   EN    FR    IT 

 










Sommario :    VFR   VFR Marginale   IFR   IFR Intensivo   IFR Molto Intensivo
Visibilità : 
Base nubi : 
>= 8 km
>= 3000ft
5 / 8 km
1000 / 3000 ft
1500m / 5 km
500 / 1000 ft
800 / 1500m
200 / 500 ft
< 800m
< 200 ft
Simboli :   Temporali  Nebbia  Neve Forte  Precipitazioni Forti  Vento > 20 kt
SIGMETs :   Varie  Temporali  Ghiacco  Turbolenza  Onda orograficha  Ceneri Vulcaniche






- Altitudine del aeroporto : 529 ft
- Codice IATA : CHR


LFLX - Chateauroux

ULTIMO METAR :
  • 051330Z AUTO 21012KT 180V240 9999 SCT032 SCT041 BKN048 21/14 Q1011 TEMPO 22015G25KT 4000 -SHRA BKN014TCU

METARs OBSOLETI :
  • 051300Z AUTO 22014KT 9999 SCT033 SCT040 BKN046 21/15 Q1011 NOSIG
  • 051230Z AUTO 23011KT 9999 SCT034 BKN043 BKN050 20/14 Q1011 NOSIG
  • 051200Z AUTO 23012KT 9999 -RA SCT034 SCT046 BKN056 21/14 Q1012 NOSIG
  • 051130Z AUTO 23011KT 200V270 9999 SCT033 BKN042 BKN049 21/14 Q1012 NOSIG

TAF TAF LFLX
Valido dal 05 a 12 ore il 06 a 18 ore UTC


051100Z 0512/0618 24010KT 9999 BKN030
TEMPO 0515/0603 22015G25KT 4000 -SHRA BKN014TCU
TEMPO 0612/0617 4000 -SHRA SCT030TCU



MetMap, La meteo Aeronautica in un colpo d'occhio ! - Copyright ORBIFLY Dicembre 2007 - Disclaimer

ORBIFLY MET'MAP TEAM :

Programmazione e sviluppo : Alexandra Zaïnal
Concezione : Baudouin d'Aumeries
Aiuto per la programmazione : Marc-Olivier Méhu
Supporto tecnico e logistico : Manuel Goepfert
Aiuto per la traduzione : Arnaldo La Scala

Contatto : metmap@orbifly.com




FONTI E CREDITI :

   NOAA